sensor_id;sensor_type;location;lat;lon;timestamp;P1;durP1;ratioP1;P2;durP2;ratioP2
52368;SDS011;38298;50.346;3.526;2023-11-21T00:02:20;22.95;;;5.00;;
52368;SDS011;38298;50.346;3.526;2023-11-21T00:04:46;29.58;;;6.47;;
52368;SDS011;38298;50.346;3.526;2023-11-21T00:07:12;24.20;;;6.07;;
52368;SDS011;38298;50.346;3.526;2023-11-21T00:09:39;19.70;;;5.97;;
52368;SDS011;38298;50.346;3.526;2023-11-21T00:12:06;16.45;;;6.15;;
52368;SDS011;38298;50.346;3.526;2023-11-21T00:14:35;10.55;;;5.00;;
52368;SDS011;38298;50.346;3.526;2023-11-21T00:17:01;19.02;;;5.07;;
52368;SDS011;38298;50.346;3.526;2023-11-21T00:19:27;18.50;;;5.82;;
52368;SDS011;38298;50.346;3.526;2023-11-21T00:21:53;19.58;;;5.38;;
52368;SDS011;38298;50.346;3.526;2023-11-21T00:24:19;21.42;;;5.63;;
52368;SDS011;38298;50.346;3.526;2023-11-21T00:26:45;20.70;;;6.20;;
52368;SDS011;38298;50.346;3.526;2023-11-21T00:29:13;17.40;;;5.85;;
52368;SDS011;38298;50.346;3.526;2023-11-21T00:31:42;23.85;;;6.43;;
52368;SDS011;38298;50.346;3.526;2023-11-21T00:34:08;18.17;;;5.60;;
52368;SDS011;38298;50.346;3.526;2023-11-21T00:36:34;20.17;;;6.70;;
52368;SDS011;38298;50.346;3.526;2023-11-21T00:39:00;23.90;;;6.63;;
52368;SDS011;38298;50.346;3.526;2023-11-21T00:41:28;28.20;;;7.00;;
52368;SDS011;38298;50.346;3.526;2023-11-21T00:43:54;25.45;;;7.80;;
52368;SDS011;38298;50.346;3.526;2023-11-21T00:46:21;20.27;;;6.90;;
52368;SDS011;38298;50.346;3.526;2023-11-21T00:48:49;19.38;;;6.32;;
52368;SDS011;38298;50.346;3.526;2023-11-21T00:51:15;30.75;;;7.13;;
52368;SDS011;38298;50.346;3.526;2023-11-21T00:53:41;29.77;;;8.40;;
52368;SDS011;38298;50.346;3.526;2023-11-21T00:56:07;20.85;;;6.35;;
52368;SDS011;38298;50.346;3.526;2023-11-21T00:58:33;25.15;;;6.47;;
52368;SDS011;38298;50.346;3.526;2023-11-21T01:01:00;20.42;;;6.78;;
52368;SDS011;38298;50.346;3.526;2023-11-21T01:03:27;18.52;;;5.70;;
52368;SDS011;38298;50.346;3.526;2023-11-21T01:05:53;16.27;;;6.18;;
52368;SDS011;38298;50.346;3.526;2023-11-21T01:08:19;19.83;;;6.05;;
52368;SDS011;38298;50.346;3.526;2023-11-21T01:10:46;21.92;;;6.85;;
52368;SDS011;38298;50.346;3.526;2023-11-21T01:13:12;13.25;;;5.03;;
52368;SDS011;38298;50.346;3.526;2023-11-21T01:15:40;19.65;;;5.85;;
52368;SDS011;38298;50.346;3.526;2023-11-21T01:18:06;17.85;;;5.88;;
52368;SDS011;38298;50.346;3.526;2023-11-21T01:20:33;14.02;;;5.53;;
52368;SDS011;38298;50.346;3.526;2023-11-21T01:22:59;16.45;;;5.88;;
52368;SDS011;38298;50.346;3.526;2023-11-21T01:25:25;16.42;;;5.20;;
52368;SDS011;38298;50.346;3.526;2023-11-21T01:27:51;17.60;;;5.72;;
52368;SDS011;38298;50.346;3.526;2023-11-21T01:30:17;25.73;;;5.65;;
52368;SDS011;38298;50.346;3.526;2023-11-21T01:32:44;17.40;;;5.80;;
52368;SDS011;38298;50.346;3.526;2023-11-21T01:35:10;13.40;;;5.30;;
52368;SDS011;38298;50.346;3.526;2023-11-21T01:37:36;16.10;;;5.18;;
52368;SDS011;38298;50.346;3.526;2023-11-21T01:40:02;18.27;;;5.68;;
52368;SDS011;38298;50.346;3.526;2023-11-21T01:42:33;13.50;;;4.72;;
52368;SDS011;38298;50.346;3.526;2023-11-21T01:44:59;17.33;;;5.32;;
52368;SDS011;38298;50.346;3.526;2023-11-21T01:47:30;12.68;;;5.32;;
52368;SDS011;38298;50.346;3.526;2023-11-21T01:49:56;17.30;;;5.60;;
52368;SDS011;38298;50.346;3.526;2023-11-21T01:52:22;13.85;;;4.75;;
52368;SDS011;38298;50.346;3.526;2023-11-21T01:54:49;17.00;;;5.22;;
52368;SDS011;38298;50.346;3.526;2023-11-21T01:57:15;18.67;;;5.20;;
52368;SDS011;38298;50.346;3.526;2023-11-21T01:59:41;13.63;;;5.35;;
52368;SDS011;38298;50.346;3.526;2023-11-21T02:02:08;19.05;;;5.00;;
52368;SDS011;38298;50.346;3.526;2023-11-21T02:04:36;13.98;;;6.00;;
52368;SDS011;38298;50.346;3.526;2023-11-21T02:07:02;23.42;;;5.95;;
52368;SDS011;38298;50.346;3.526;2023-11-21T02:09:31;18.65;;;5.38;;
52368;SDS011;38298;50.346;3.526;2023-11-21T02:12:03;22.85;;;5.45;;
52368;SDS011;38298;50.346;3.526;2023-11-21T02:14:29;14.63;;;5.05;;
52368;SDS011;38298;50.346;3.526;2023-11-21T02:16:56;14.98;;;5.05;;
52368;SDS011;38298;50.346;3.526;2023-11-21T02:19:22;11.25;;;5.00;;
52368;SDS011;38298;50.346;3.526;2023-11-21T02:21:50;24.63;;;5.45;;
52368;SDS011;38298;50.346;3.526;2023-11-21T02:24:25;18.17;;;5.18;;
52368;SDS011;38298;50.346;3.526;2023-11-21T02:26:52;17.88;;;5.15;;
52368;SDS011;38298;50.346;3.526;2023-11-21T02:29:18;16.88;;;5.85;;
52368;SDS011;38298;50.346;3.526;2023-11-21T02:31:47;13.05;;;5.30;;
52368;SDS011;38298;50.346;3.526;2023-11-21T02:34:16;18.83;;;5.43;;
52368;SDS011;38298;50.346;3.526;2023-11-21T02:36:43;20.90;;;5.50;;
52368;SDS011;38298;50.346;3.526;2023-11-21T02:39:09;17.33;;;5.10;;
52368;SDS011;38298;50.346;3.526;2023-11-21T02:41:39;15.23;;;5.03;;
52368;SDS011;38298;50.346;3.526;2023-11-21T02:44:05;14.95;;;5.40;;
52368;SDS011;38298;50.346;3.526;2023-11-21T02:46:35;14.93;;;5.15;;
52368;SDS011;38298;50.346;3.526;2023-11-21T02:49:01;12.10;;;4.68;;
52368;SDS011;38298;50.346;3.526;2023-11-21T02:51:27;16.13;;;5.18;;
52368;SDS011;38298;50.346;3.526;2023-11-21T02:53:53;13.38;;;5.10;;
52368;SDS011;38298;50.346;3.526;2023-11-21T02:56:23;18.40;;;5.40;;
52368;SDS011;38298;50.346;3.526;2023-11-21T02:58:49;15.55;;;5.07;;
52368;SDS011;38298;50.346;3.526;2023-11-21T03:01:15;13.90;;;5.28;;
52368;SDS011;38298;50.346;3.526;2023-11-21T03:03:42;14.35;;;5.15;;
52368;SDS011;38298;50.346;3.526;2023-11-21T03:06:08;16.13;;;5.35;;
52368;SDS011;38298;50.346;3.526;2023-11-21T03:08:34;17.60;;;5.20;;
52368;SDS011;38298;50.346;3.526;2023-11-21T03:11:00;20.10;;;5.63;;
52368;SDS011;38298;50.346;3.526;2023-11-21T03:13:28;12.18;;;5.35;;
52368;SDS011;38298;50.346;3.526;2023-11-21T03:15:54;16.88;;;6.45;;
52368;SDS011;38298;50.346;3.526;2023-11-21T03:18:20;26.00;;;6.22;;
52368;SDS011;38298;50.346;3.526;2023-11-21T03:20:49;16.25;;;5.68;;
52368;SDS011;38298;50.346;3.526;2023-11-21T03:23:15;19.75;;;5.68;;
52368;SDS011;38298;50.346;3.526;2023-11-21T03:25:41;22.30;;;6.38;;
52368;SDS011;38298;50.346;3.526;2023-11-21T03:28:08;21.20;;;6.43;;
52368;SDS011;38298;50.346;3.526;2023-11-21T03:30:34;15.45;;;5.90;;
52368;SDS011;38298;50.346;3.526;2023-11-21T03:33:00;16.63;;;5.90;;
52368;SDS011;38298;50.346;3.526;2023-11-21T03:35:26;23.30;;;6.05;;
52368;SDS011;38298;50.346;3.526;2023-11-21T03:37:53;14.07;;;5.32;;
52368;SDS011;38298;50.346;3.526;2023-11-21T03:40:19;12.48;;;5.18;;
52368;SDS011;38298;50.346;3.526;2023-11-21T03:42:46;18.67;;;5.75;;
52368;SDS011;38298;50.346;3.526;2023-11-21T03:45:12;19.02;;;5.82;;
52368;SDS011;38298;50.346;3.526;2023-11-21T03:47:40;13.30;;;5.97;;
52368;SDS011;38298;50.346;3.526;2023-11-21T03:50:06;18.02;;;6.53;;
52368;SDS011;38298;50.346;3.526;2023-11-21T03:52:34;18.15;;;5.72;;
52368;SDS011;38298;50.346;3.526;2023-11-21T03:55:00;14.25;;;5.85;;
52368;SDS011;38298;50.346;3.526;2023-11-21T03:57:26;20.77;;;6.63;;
52368;SDS011;38298;50.346;3.526;2023-11-21T03:59:55;25.63;;;6.40;;
52368;SDS011;38298;50.346;3.526;2023-11-21T04:02:21;16.40;;;5.78;;
52368;SDS011;38298;50.346;3.526;2023-11-21T04:04:47;21.00;;;6.60;;
52368;SDS011;38298;50.346;3.526;2023-11-21T04:07:13;12.82;;;5.68;;
52368;SDS011;38298;50.346;3.526;2023-11-21T04:09:39;19.20;;;7.22;;
52368;SDS011;38298;50.346;3.526;2023-11-21T04:12:06;18.63;;;7.10;;
52368;SDS011;38298;50.346;3.526;2023-11-21T04:14:34;17.48;;;6.65;;
52368;SDS011;38298;50.346;3.526;2023-11-21T04:17:00;19.55;;;6.55;;
52368;SDS011;38298;50.346;3.526;2023-11-21T04:19:26;21.48;;;6.32;;
52368;SDS011;38298;50.346;3.526;2023-11-21T04:21:52;24.20;;;7.47;;
52368;SDS011;38298;50.346;3.526;2023-11-21T04:24:18;15.15;;;7.03;;
52368;SDS011;38298;50.346;3.526;2023-11-21T04:26:44;30.45;;;6.80;;
52368;SDS011;38298;50.346;3.526;2023-11-21T04:29:10;20.92;;;5.97;;
52368;SDS011;38298;50.346;3.526;2023-11-21T04:31:36;21.02;;;7.25;;
52368;SDS011;38298;50.346;3.526;2023-11-21T04:34:02;19.00;;;6.70;;
52368;SDS011;38298;50.346;3.526;2023-11-21T04:36:31;25.55;;;7.20;;
52368;SDS011;38298;50.346;3.526;2023-11-21T04:38:57;23.77;;;7.07;;
52368;SDS011;38298;50.346;3.526;2023-11-21T04:41:23;27.60;;;7.70;;
52368;SDS011;38298;50.346;3.526;2023-11-21T04:43:49;31.48;;;8.35;;
52368;SDS011;38298;50.346;3.526;2023-11-21T04:46:15;26.92;;;7.80;;
52368;SDS011;38298;50.346;3.526;2023-11-21T04:48:41;19.52;;;7.03;;
52368;SDS011;38298;50.346;3.526;2023-11-21T04:51:07;28.58;;;8.55;;
52368;SDS011;38298;50.346;3.526;2023-11-21T04:53:33;25.70;;;8.25;;
52368;SDS011;38298;50.346;3.526;2023-11-21T04:56:00;25.95;;;8.23;;
52368;SDS011;38298;50.346;3.526;2023-11-21T04:58:26;21.75;;;7.80;;
52368;SDS011;38298;50.346;3.526;2023-11-21T05:00:52;25.52;;;7.78;;
52368;SDS011;38298;50.346;3.526;2023-11-21T05:03:18;27.30;;;8.73;;
52368;SDS011;38298;50.346;3.526;2023-11-21T05:05:44;25.67;;;8.05;;
52368;SDS011;38298;50.346;3.526;2023-11-21T05:08:10;28.23;;;8.40;;
52368;SDS011;38298;50.346;3.526;2023-11-21T05:10:36;17.77;;;7.20;;
52368;SDS011;38298;50.346;3.526;2023-11-21T05:13:04;26.35;;;8.27;;
52368;SDS011;38298;50.346;3.526;2023-11-21T05:15:34;21.48;;;7.47;;
52368;SDS011;38298;50.346;3.526;2023-11-21T05:18:00;19.42;;;7.50;;
52368;SDS011;38298;50.346;3.526;2023-11-21T05:20:26;22.45;;;8.05;;
52368;SDS011;38298;50.346;3.526;2023-11-21T05:22:52;18.02;;;8.27;;
52368;SDS011;38298;50.346;3.526;2023-11-21T05:25:18;23.20;;;8.60;;
52368;SDS011;38298;50.346;3.526;2023-11-21T05:27:45;21.10;;;8.13;;
52368;SDS011;38298;50.346;3.526;2023-11-21T05:30:11;24.65;;;7.38;;
52368;SDS011;38298;50.346;3.526;2023-11-21T05:32:38;20.30;;;7.90;;
52368;SDS011;38298;50.346;3.526;2023-11-21T05:35:04;19.40;;;7.32;;
52368;SDS011;38298;50.346;3.526;2023-11-21T05:37:40;23.67;;;8.05;;
52368;SDS011;38298;50.346;3.526;2023-11-21T05:40:06;20.75;;;7.40;;
52368;SDS011;38298;50.346;3.526;2023-11-21T05:42:36;23.85;;;7.68;;
52368;SDS011;38298;50.346;3.526;2023-11-21T05:45:06;18.15;;;7.18;;
52368;SDS011;38298;50.346;3.526;2023-11-21T05:50:02;17.92;;;7.35;;
52368;SDS011;38298;50.346;3.526;2023-11-21T05:52:28;18.60;;;7.55;;
52368;SDS011;38298;50.346;3.526;2023-11-21T05:54:54;16.98;;;6.65;;
52368;SDS011;38298;50.346;3.526;2023-11-21T05:57:20;16.52;;;7.13;;
52368;SDS011;38298;50.346;3.526;2023-11-21T05:59:46;18.75;;;7.70;;
52368;SDS011;38298;50.346;3.526;2023-11-21T06:02:12;22.65;;;7.18;;
52368;SDS011;38298;50.346;3.526;2023-11-21T06:04:38;21.35;;;6.82;;
52368;SDS011;38298;50.346;3.526;2023-11-21T06:07:04;20.98;;;7.90;;
52368;SDS011;38298;50.346;3.526;2023-11-21T06:09:30;19.23;;;7.40;;
52368;SDS011;38298;50.346;3.526;2023-11-21T06:11:56;20.65;;;7.20;;
52368;SDS011;38298;50.346;3.526;2023-11-21T06:14:22;20.80;;;7.43;;
52368;SDS011;38298;50.346;3.526;2023-11-21T06:16:48;19.63;;;7.50;;
52368;SDS011;38298;50.346;3.526;2023-11-21T06:19:16;16.20;;;7.78;;
52368;SDS011;38298;50.346;3.526;2023-11-21T06:21:44;21.88;;;7.70;;
52368;SDS011;38298;50.346;3.526;2023-11-21T06:24:11;16.80;;;7.68;;
52368;SDS011;38298;50.346;3.526;2023-11-21T06:26:37;21.65;;;7.75;;
52368;SDS011;38298;50.346;3.526;2023-11-21T06:29:13;19.65;;;9.02;;
52368;SDS011;38298;50.346;3.526;2023-11-21T06:31:39;20.80;;;8.02;;
52368;SDS011;38298;50.346;3.526;2023-11-21T06:34:06;24.38;;;9.38;;
52368;SDS011;38298;50.346;3.526;2023-11-21T06:36:34;26.02;;;9.07;;
52368;SDS011;38298;50.346;3.526;2023-11-21T06:39:00;21.73;;;8.10;;
52368;SDS011;38298;50.346;3.526;2023-11-21T06:41:26;21.90;;;8.82;;
52368;SDS011;38298;50.346;3.526;2023-11-21T06:43:52;26.05;;;9.85;;
52368;SDS011;38298;50.346;3.526;2023-11-21T06:46:18;22.42;;;8.82;;
52368;SDS011;38298;50.346;3.526;2023-11-21T06:48:44;21.98;;;8.77;;
52368;SDS011;38298;50.346;3.526;2023-11-21T06:51:11;21.15;;;8.20;;
52368;SDS011;38298;50.346;3.526;2023-11-21T06:53:38;18.23;;;8.23;;
52368;SDS011;38298;50.346;3.526;2023-11-21T06:56:04;19.30;;;9.02;;
52368;SDS011;38298;50.346;3.526;2023-11-21T06:58:30;20.25;;;8.27;;
52368;SDS011;38298;50.346;3.526;2023-11-21T07:00:56;15.63;;;7.88;;
52368;SDS011;38298;50.346;3.526;2023-11-21T07:03:23;16.42;;;8.18;;
52368;SDS011;38298;50.346;3.526;2023-11-21T07:05:50;15.90;;;7.63;;
52368;SDS011;38298;50.346;3.526;2023-11-21T07:08:16;15.60;;;8.20;;
52368;SDS011;38298;50.346;3.526;2023-11-21T07:10:42;18.20;;;8.45;;
52368;SDS011;38298;50.346;3.526;2023-11-21T07:13:08;16.83;;;7.97;;
52368;SDS011;38298;50.346;3.526;2023-11-21T07:15:37;22.45;;;9.15;;
52368;SDS011;38298;50.346;3.526;2023-11-21T07:18:03;17.83;;;8.52;;
52368;SDS011;38298;50.346;3.526;2023-11-21T07:20:32;20.15;;;8.60;;
52368;SDS011;38298;50.346;3.526;2023-11-21T07:22:58;19.00;;;8.45;;
52368;SDS011;38298;50.346;3.526;2023-11-21T07:25:25;17.75;;;8.13;;
52368;SDS011;38298;50.346;3.526;2023-11-21T07:27:51;16.38;;;7.90;;
52368;SDS011;38298;50.346;3.526;2023-11-21T07:30:18;15.98;;;8.38;;
52368;SDS011;38298;50.346;3.526;2023-11-21T07:32:44;20.40;;;9.35;;
52368;SDS011;38298;50.346;3.526;2023-11-21T07:35:11;22.27;;;8.48;;
52368;SDS011;38298;50.346;3.526;2023-11-21T07:37:37;19.33;;;8.68;;
52368;SDS011;38298;50.346;3.526;2023-11-21T07:40:03;23.63;;;9.60;;
52368;SDS011;38298;50.346;3.526;2023-11-21T07:42:29;20.38;;;8.77;;
52368;SDS011;38298;50.346;3.526;2023-11-21T07:44:55;22.90;;;9.77;;
52368;SDS011;38298;50.346;3.526;2023-11-21T07:47:21;20.13;;;8.82;;
52368;SDS011;38298;50.346;3.526;2023-11-21T07:49:47;19.70;;;9.18;;
52368;SDS011;38298;50.346;3.526;2023-11-21T07:52:13;18.77;;;8.80;;
52368;SDS011;38298;50.346;3.526;2023-11-21T07:54:41;17.83;;;8.73;;
52368;SDS011;38298;50.346;3.526;2023-11-21T07:57:07;15.95;;;8.23;;
52368;SDS011;38298;50.346;3.526;2023-11-21T07:59:33;21.58;;;9.27;;
52368;SDS011;38298;50.346;3.526;2023-11-21T08:01:59;21.38;;;8.88;;
52368;SDS011;38298;50.346;3.526;2023-11-21T08:04:25;24.58;;;9.57;;
52368;SDS011;38298;50.346;3.526;2023-11-21T08:06:51;21.60;;;9.25;;
52368;SDS011;38298;50.346;3.526;2023-11-21T08:09:17;19.38;;;8.63;;
52368;SDS011;38298;50.346;3.526;2023-11-21T08:11:43;21.02;;;8.75;;
52368;SDS011;38298;50.346;3.526;2023-11-21T08:14:09;21.75;;;8.93;;
52368;SDS011;38298;50.346;3.526;2023-11-21T08:16:35;21.38;;;8.82;;
52368;SDS011;38298;50.346;3.526;2023-11-21T08:19:01;22.45;;;8.50;;
52368;SDS011;38298;50.346;3.526;2023-11-21T08:21:28;18.23;;;8.85;;
52368;SDS011;38298;50.346;3.526;2023-11-21T08:23:54;18.33;;;8.43;;
52368;SDS011;38298;50.346;3.526;2023-11-21T08:26:20;21.17;;;8.85;;
52368;SDS011;38298;50.346;3.526;2023-11-21T08:28:46;17.23;;;9.48;;
52368;SDS011;38298;50.346;3.526;2023-11-21T08:31:13;18.50;;;9.20;;
52368;SDS011;38298;50.346;3.526;2023-11-21T08:33:39;28.35;;;10.20;;
52368;SDS011;38298;50.346;3.526;2023-11-21T08:36:08;17.55;;;9.05;;
52368;SDS011;38298;50.346;3.526;2023-11-21T08:38:36;23.73;;;9.55;;
52368;SDS011;38298;50.346;3.526;2023-11-21T08:41:03;19.30;;;8.73;;
52368;SDS011;38298;50.346;3.526;2023-11-21T08:43:32;20.95;;;9.73;;
52368;SDS011;38298;50.346;3.526;2023-11-21T08:45:59;18.50;;;8.45;;
52368;SDS011;38298;50.346;3.526;2023-11-21T08:48:25;23.67;;;9.65;;
52368;SDS011;38298;50.346;3.526;2023-11-21T08:50:53;19.38;;;8.75;;
52368;SDS011;38298;50.346;3.526;2023-11-21T08:53:19;15.63;;;8.23;;
52368;SDS011;38298;50.346;3.526;2023-11-21T08:55:46;15.25;;;7.80;;
52368;SDS011;38298;50.346;3.526;2023-11-21T08:58:13;16.05;;;7.97;;
52368;SDS011;38298;50.346;3.526;2023-11-21T09:00:39;16.85;;;8.02;;
52368;SDS011;38298;50.346;3.526;2023-11-21T09:03:05;18.48;;;8.70;;
52368;SDS011;38298;50.346;3.526;2023-11-21T09:05:34;16.58;;;8.38;;
52368;SDS011;38298;50.346;3.526;2023-11-21T09:08:00;17.13;;;7.88;;
52368;SDS011;38298;50.346;3.526;2023-11-21T09:10:26;21.23;;;8.63;;
52368;SDS011;38298;50.346;3.526;2023-11-21T09:12:53;16.15;;;7.93;;
52368;SDS011;38298;50.346;3.526;2023-11-21T09:15:19;19.98;;;7.35;;
52368;SDS011;38298;50.346;3.526;2023-11-21T09:17:45;16.52;;;8.15;;
52368;SDS011;38298;50.346;3.526;2023-11-21T09:20:11;24.88;;;8.90;;
52368;SDS011;38298;50.346;3.526;2023-11-21T09:22:39;23.88;;;9.07;;
52368;SDS011;38298;50.346;3.526;2023-11-21T09:25:06;22.20;;;7.80;;
52368;SDS011;38298;50.346;3.526;2023-11-21T09:27:33;19.17;;;8.48;;
52368;SDS011;38298;50.346;3.526;2023-11-21T09:30:00;22.73;;;8.57;;
52368;SDS011;38298;50.346;3.526;2023-11-21T09:32:27;20.90;;;9.13;;
52368;SDS011;38298;50.346;3.526;2023-11-21T09:34:53;22.92;;;7.85;;
52368;SDS011;38298;50.346;3.526;2023-11-21T09:37:23;23.58;;;7.90;;
52368;SDS011;38298;50.346;3.526;2023-11-21T09:39:49;20.40;;;7.88;;
52368;SDS011;38298;50.346;3.526;2023-11-21T09:42:18;27.00;;;8.07;;
52368;SDS011;38298;50.346;3.526;2023-11-21T09:47:24;20.50;;;7.43;;
52368;SDS011;38298;50.346;3.526;2023-11-21T09:49:50;19.35;;;7.40;;
52368;SDS011;38298;50.346;3.526;2023-11-21T09:52:24;21.85;;;8.18;;
52368;SDS011;38298;50.346;3.526;2023-11-21T09:54:51;16.77;;;7.55;;
52368;SDS011;38298;50.346;3.526;2023-11-21T09:57:19;16.10;;;6.97;;
52368;SDS011;38298;50.346;3.526;2023-11-21T09:59:46;19.95;;;7.68;;
52368;SDS011;38298;50.346;3.526;2023-11-21T10:02:13;17.25;;;7.22;;
52368;SDS011;38298;50.346;3.526;2023-11-21T10:04:39;17.65;;;7.93;;
52368;SDS011;38298;50.346;3.526;2023-11-21T10:07:06;18.65;;;7.50;;
52368;SDS011;38298;50.346;3.526;2023-11-21T10:09:35;23.27;;;7.88;;
52368;SDS011;38298;50.346;3.526;2023-11-21T10:12:03;19.67;;;7.50;;
52368;SDS011;38298;50.346;3.526;2023-11-21T10:14:31;16.70;;;6.50;;
52368;SDS011;38298;50.346;3.526;2023-11-21T10:16:57;17.45;;;7.30;;
52368;SDS011;38298;50.346;3.526;2023-11-21T10:19:23;23.30;;;7.70;;
52368;SDS011;38298;50.346;3.526;2023-11-21T10:21:49;19.13;;;7.28;;
52368;SDS011;38298;50.346;3.526;2023-11-21T10:24:16;22.88;;;8.13;;
52368;SDS011;38298;50.346;3.526;2023-11-21T10:26:43;23.15;;;8.02;;
52368;SDS011;38298;50.346;3.526;2023-11-21T10:29:10;26.60;;;8.20;;
52368;SDS011;38298;50.346;3.526;2023-11-21T10:31:43;26.42;;;8.80;;
52368;SDS011;38298;50.346;3.526;2023-11-21T10:34:13;21.95;;;8.25;;
52368;SDS011;38298;50.346;3.526;2023-11-21T10:36:40;25.90;;;8.57;;
52368;SDS011;38298;50.346;3.526;2023-11-21T10:39:06;18.90;;;8.43;;
52368;SDS011;38298;50.346;3.526;2023-11-21T10:41:32;23.40;;;9.45;;
52368;SDS011;38298;50.346;3.526;2023-11-21T10:44:00;25.58;;;9.38;;
52368;SDS011;38298;50.346;3.526;2023-11-21T10:46:29;24.52;;;9.50;;
52368;SDS011;38298;50.346;3.526;2023-11-21T10:48:55;29.98;;;11.38;;
52368;SDS011;38298;50.346;3.526;2023-11-21T10:51:21;38.33;;;13.27;;
52368;SDS011;38298;50.346;3.526;2023-11-21T10:53:49;42.53;;;13.57;;
52368;SDS011;38298;50.346;3.526;2023-11-21T10:56:16;43.78;;;14.73;;
52368;SDS011;38298;50.346;3.526;2023-11-21T10:58:45;36.65;;;12.85;;
52368;SDS011;38298;50.346;3.526;2023-11-21T11:01:11;39.17;;;13.02;;
52368;SDS011;38298;50.346;3.526;2023-11-21T11:03:39;38.75;;;14.45;;
52368;SDS011;38298;50.346;3.526;2023-11-21T11:06:05;38.85;;;13.82;;
52368;SDS011;38298;50.346;3.526;2023-11-21T11:08:39;39.38;;;13.55;;
52368;SDS011;38298;50.346;3.526;2023-11-21T11:11:06;39.78;;;14.10;;
52368;SDS011;38298;50.346;3.526;2023-11-21T11:13:32;31.70;;;12.98;;
52368;SDS011;38298;50.346;3.526;2023-11-21T11:15:58;31.52;;;12.23;;
52368;SDS011;38298;50.346;3.526;2023-11-21T11:18:25;31.58;;;12.13;;
52368;SDS011;38298;50.346;3.526;2023-11-21T11:20:51;30.13;;;11.38;;
52368;SDS011;38298;50.346;3.526;2023-11-21T11:31:32;26.75;;;11.63;;
52368;SDS011;38298;50.346;3.526;2023-11-21T11:36:48;16.88;;;9.98;;
52368;SDS011;38298;50.346;3.526;2023-11-21T11:39:30;18.10;;;9.32;;
52368;SDS011;38298;50.346;3.526;2023-11-21T11:41:57;18.60;;;9.93;;
52368;SDS011;38298;50.346;3.526;2023-11-21T11:47:13;15.02;;;8.85;;
52368;SDS011;38298;50.346;3.526;2023-11-21T11:49:54;14.10;;;8.27;;
52368;SDS011;38298;50.346;3.526;2023-11-21T11:55:02;14.57;;;8.40;;
52368;SDS011;38298;50.346;3.526;2023-11-21T11:57:32;17.13;;;8.75;;
52368;SDS011;38298;50.346;3.526;2023-11-21T12:00:09;13.93;;;8.98;;
52368;SDS011;38298;50.346;3.526;2023-11-21T12:02:36;15.50;;;9.23;;
52368;SDS011;38298;50.346;3.526;2023-11-21T12:05:08;16.58;;;9.45;;
52368;SDS011;38298;50.346;3.526;2023-11-21T12:07:48;19.00;;;10.55;;
52368;SDS011;38298;50.346;3.526;2023-11-21T12:10:17;21.63;;;11.25;;
52368;SDS011;38298;50.346;3.526;2023-11-21T12:12:47;21.48;;;11.95;;
52368;SDS011;38298;50.346;3.526;2023-11-21T12:15:14;27.77;;;12.38;;
52368;SDS011;38298;50.346;3.526;2023-11-21T12:17:41;21.15;;;10.75;;
52368;SDS011;38298;50.346;3.526;2023-11-21T12:20:08;25.52;;;11.07;;
52368;SDS011;38298;50.346;3.526;2023-11-21T12:22:46;20.92;;;11.40;;
52368;SDS011;38298;50.346;3.526;2023-11-21T12:25:13;23.98;;;10.77;;
52368;SDS011;38298;50.346;3.526;2023-11-21T12:27:41;17.40;;;9.00;;
52368;SDS011;38298;50.346;3.526;2023-11-21T12:30:07;12.77;;;7.93;;
52368;SDS011;38298;50.346;3.526;2023-11-21T12:32:38;13.68;;;7.40;;
52368;SDS011;38298;50.346;3.526;2023-11-21T12:35:05;13.80;;;7.38;;
52368;SDS011;38298;50.346;3.526;2023-11-21T12:37:31;12.90;;;7.05;;
52368;SDS011;38298;50.346;3.526;2023-11-21T12:39:57;12.68;;;7.30;;
52368;SDS011;38298;50.346;3.526;2023-11-21T12:42:24;14.88;;;7.22;;
52368;SDS011;38298;50.346;3.526;2023-11-21T12:47:45;14.55;;;6.13;;
52368;SDS011;38298;50.346;3.526;2023-11-21T12:50:12;12.38;;;5.40;;
52368;SDS011;38298;50.346;3.526;2023-11-21T12:52:43;8.95;;;4.97;;
52368;SDS011;38298;50.346;3.526;2023-11-21T12:55:16;11.25;;;4.75;;
52368;SDS011;38298;50.346;3.526;2023-11-21T12:57:43;13.50;;;4.35;;
52368;SDS011;38298;50.346;3.526;2023-11-21T13:00:09;9.93;;;3.90;;
52368;SDS011;38298;50.346;3.526;2023-11-21T13:02:38;13.02;;;3.45;;
52368;SDS011;38298;50.346;3.526;2023-11-21T13:05:07;14.50;;;3.92;;
52368;SDS011;38298;50.346;3.526;2023-11-21T13:07:43;8.63;;;3.10;;
52368;SDS011;38298;50.346;3.526;2023-11-21T13:10:12;10.70;;;3.67;;
52368;SDS011;38298;50.346;3.526;2023-11-21T13:12:44;9.27;;;2.67;;
52368;SDS011;38298;50.346;3.526;2023-11-21T13:15:14;8.20;;;3.28;;
52368;SDS011;38298;50.346;3.526;2023-11-21T13:17:43;11.23;;;3.25;;
52368;SDS011;38298;50.346;3.526;2023-11-21T13:20:10;11.32;;;3.00;;
52368;SDS011;38298;50.346;3.526;2023-11-21T13:23:06;10.35;;;3.30;;
52368;SDS011;38298;50.346;3.526;2023-11-21T13:25:28;14.40;;;3.60;;
52368;SDS011;38298;50.346;3.526;2023-11-21T13:27:56;6.97;;;2.85;;
52368;SDS011;38298;50.346;3.526;2023-11-21T13:30:23;8.15;;;2.30;;
52368;SDS011;38298;50.346;3.526;2023-11-21T13:32:55;9.52;;;2.70;;
52368;SDS011;38298;50.346;3.526;2023-11-21T13:35:22;7.85;;;2.08;;
52368;SDS011;38298;50.346;3.526;2023-11-21T13:37:57;5.45;;;1.80;;
52368;SDS011;38298;50.346;3.526;2023-11-21T13:40:25;7.10;;;1.83;;
52368;SDS011;38298;50.346;3.526;2023-11-21T13:42:55;9.05;;;1.75;;
52368;SDS011;38298;50.346;3.526;2023-11-21T13:45:24;7.78;;;1.77;;
52368;SDS011;38298;50.346;3.526;2023-11-21T13:47:51;4.70;;;1.40;;
52368;SDS011;38298;50.346;3.526;2023-11-21T13:50:20;3.13;;;1.38;;
52368;SDS011;38298;50.346;3.526;2023-11-21T13:52:51;7.07;;;1.55;;
52368;SDS011;38298;50.346;3.526;2023-11-21T13:55:18;5.88;;;1.45;;
52368;SDS011;38298;50.346;3.526;2023-11-21T13:57:44;6.07;;;1.38;;
52368;SDS011;38298;50.346;3.526;2023-11-21T14:00:14;1.58;;;1.05;;
52368;SDS011;38298;50.346;3.526;2023-11-21T14:03:01;11.40;;;1.73;;
52368;SDS011;38298;50.346;3.526;2023-11-21T14:05:31;5.40;;;1.25;;
52368;SDS011;38298;50.346;3.526;2023-11-21T14:07:58;2.80;;;1.25;;
52368;SDS011;38298;50.346;3.526;2023-11-21T14:10:30;5.45;;;1.35;;
52368;SDS011;38298;50.346;3.526;2023-11-21T14:13:09;2.35;;;1.10;;
52368;SDS011;38298;50.346;3.526;2023-11-21T14:15:39;2.90;;;1.20;;
52368;SDS011;38298;50.346;3.526;2023-11-21T14:18:08;3.60;;;1.17;;
52368;SDS011;38298;50.346;3.526;2023-11-21T14:20:42;7.30;;;1.30;;
52368;SDS011;38298;50.346;3.526;2023-11-21T14:23:09;5.32;;;1.50;;
52368;SDS011;38298;50.346;3.526;2023-11-21T14:25:35;4.63;;;1.55;;
52368;SDS011;38298;50.346;3.526;2023-11-21T14:28:02;2.85;;;1.48;;
52368;SDS011;38298;50.346;3.526;2023-11-21T14:30:28;5.93;;;1.40;;
52368;SDS011;38298;50.346;3.526;2023-11-21T14:32:57;6.63;;;1.70;;
52368;SDS011;38298;50.346;3.526;2023-11-21T14:35:23;7.00;;;1.90;;
52368;SDS011;38298;50.346;3.526;2023-11-21T14:37:49;3.67;;;1.60;;
52368;SDS011;38298;50.346;3.526;2023-11-21T14:40:16;4.82;;;2.10;;
52368;SDS011;38298;50.346;3.526;2023-11-21T14:42:42;5.55;;;1.92;;
52368;SDS011;38298;50.346;3.526;2023-11-21T14:45:12;5.15;;;2.10;;
52368;SDS011;38298;50.346;3.526;2023-11-21T14:47:41;12.30;;;1.90;;
52368;SDS011;38298;50.346;3.526;2023-11-21T14:50:14;6.43;;;2.13;;
52368;SDS011;38298;50.346;3.526;2023-11-21T14:53:00;7.13;;;2.42;;
52368;SDS011;38298;50.346;3.526;2023-11-21T14:55:26;3.38;;;1.98;;
52368;SDS011;38298;50.346;3.526;2023-11-21T14:58:08;3.80;;;2.00;;
52368;SDS011;38298;50.346;3.526;2023-11-21T15:00:38;3.10;;;1.95;;
52368;SDS011;38298;50.346;3.526;2023-11-21T15:03:10;5.30;;;2.38;;